MAPA DE AEROPUERTO

INFORMACIÓN METAR y TAF


Deprecated: The each() function is deprecated. This message will be suppressed on further calls in /home/customer/www/clickair-va.com/public_html/VAM/vam/helpers/get_metar.php on line 20
METAR FOR LEXJ
ADDS - METARS form results

(1614 UTC 12 January 2023)
Data provider http://aviationweather.gov/metar/data/
 
METAR text: LEXJ 121600Z 06003KT 020V100 9999 BKN028 13/08 Q1025
Conditions at: LEXJ (SANTANDER/PARAYA, ES) observed 1600 UTC 12 January 2023
Temperature: 13.0°C (55°F)
Dewpoint: 8.0°C (46°F) [RH = 72%]
Pressure (altimeter): 30.27 inches Hg (1025.0 mb)
Winds: from the ENE (60 degrees) at 3 MPH (3 knots; 1.5 m/s)
Visibility: 6 or more miles (10+ km)
Ceiling: 2800 feet AGL
Clouds: broken clouds at 2800 feet AGL
Weather: no significant weather observed at this time

METAR text: LEXJ 121530Z 06003KT 020V100 9999 FEW030 13/08 Q1025
Conditions at: LEXJ (SANTANDER/PARAYA, ES) observed 1530 UTC 12 January 2023
Temperature: 13.0°C (55°F)
Dewpoint: 8.0°C (46°F) [RH = 72%]
Pressure (altimeter): 30.27 inches Hg (1025.0 mb)
Winds: from the ENE (60 degrees) at 3 MPH (3 knots; 1.5 m/s)
Visibility: 6 or more miles (10+ km)
Ceiling: at least 12,000 feet AGL
Clouds: few clouds at 3000 feet AGL
Weather: no significant weather observed at this time

Forecast for: LEXJ (SANTANDER/PARAYA, ES)
Text: TAF LEXJ 121400Z 1215/1315 22009KT 9999 FEW040 TX14/1215Z TN10/1306Z
Forecast period: 1500 UTC 12 January 2023 to 1500 UTC 13 January 2023
Forecast type: FROM: standard forecast or significant change
Winds: from the SW (220 degrees) at 10 MPH (9 knots; 4.6 m/s)
Visibility: 6 or more miles (10+ km)
Ceiling: at least 12,000 feet AGL
Clouds: few clouds at 4000 feet AGL
Weather: no significant weather forecast for this period